• Join FlightAware (Why Join?)
  • Login
  • US Flag 
07:09PM EST


 

Airport Tracker/Info


-or-


 

Live Flight TrackerFlight Track Log ✈ A6-EWE ✈ 14-Apr-2013 ✈ OMDB / DXB - LPPT / LIS

Flight Track Log - Related Links

Times and Time Zones

All times are in EDT time to prevent confusion due to time zone crossing. See the A6-EWE flight status page for this flight to view local times or setup timezone preferences in your user account.

Time Position Orientation Groundspeed Altitude Reporting Facility
EDT Latitude Longitude Course Direction KTS MPH feet Rate Location/Type
01:53AM 25.3160 54.6320 301° West 403 464 21,500  Level FlightAware
01:54AM 26.0571 53.8661 301° West  Level Estimated
01:54AM 25.3390 54.5410 286° West 412 474 23,500  Level FlightAware
01:54AM 25.3600 54.4570 285° West 420 483 25,200 2,280 Climbing FlightAware
01:55AM 25.3780 54.3820 285° West 428 493 26,600 2,400 Climbing FlightAware
01:56AM 25.4040 54.2770 285° West 433 498 28,600 2,280 Climbing FlightAware
01:57AM 25.4240 54.1930 285° West 440 506 29,900 2,460 Climbing FlightAware
01:57AM 25.4480 54.0950 285° West 426 490 32,100 2,580 Climbing FlightAware
01:58AM 25.4680 54.0110 285° West 422 486 33,600 1,320 Climbing FlightAware
01:59AM 25.4910 53.9170 285° West 417 480 34,000 240 Climbing FlightAware
01:59AM 25.5110 53.8350 285° West 414 476 34,000  Level FlightAware
02:00AM 25.5300 53.7530 284° West 410 472 34,000  Level FlightAware
02:01AM 25.5520 53.6630 285° West 411 473 34,000  Level FlightAware
02:02AM 25.5750 53.5630 284° West 412 474 34,000  Level FlightAware
02:02AM 25.5970 53.4730 285° West 412 474 34,000  Level FlightAware
02:03AM 25.6150 53.3870 283° West 412 474 34,000  Level FlightAware
02:04AM 25.6290 53.3170 283° West 412 474 34,000  Level FlightAware
02:05AM 25.6750 53.2060 295° West 428 493 34,000  Level FlightAware
02:05AM 25.7230 53.1350 307° West 429 494 34,000  Level FlightAware
02:06AM 25.7630 53.0620 301° West 412 474 34,000  Level FlightAware
02:07AM 25.7790 52.9840 283° West 410 472 34,000  Level FlightAware
02:07AM 25.7920 52.8890 279° West 409 471 34,000  Level FlightAware
02:08AM 25.8030 52.8080 279° West 411 473 34,000  Level FlightAware
02:09AM 25.8170 52.7090 279° West 411 473 34,000  Level FlightAware
02:09AM 25.8290 52.6280 279° West 411 473 34,000  Level FlightAware
02:10AM 25.8430 52.5360 280° West 411 473 34,000  Level FlightAware
02:11AM 25.8600 52.4510 283° West 418 481 34,000  Level FlightAware
02:12AM 25.8990 52.3640 297° West 419 482 34,000  Level FlightAware
02:12AM 25.9370 52.2880 299° West 421 484 34,000  Level FlightAware
02:13AM 25.9790 52.2020 299° West 421 484 34,000  Level FlightAware
02:14AM 26.0170 52.1240 298° West 421 484 34,000  Level FlightAware
02:14AM 26.0530 52.0490 298° West 421 484 34,000  Level FlightAware
02:15AM 26.0950 51.9620 298° West 422 486 34,000  Level FlightAware
02:16AM 26.1310 51.8860 298° West 424 488 34,000  Level FlightAware
02:16AM 26.1700 51.8050 298° West 425 489 34,000  Level FlightAware
02:17AM 26.2110 51.7140 297° West 430 495 34,000  Level FlightAware
02:18AM 26.2500 51.6270 297° West 431 496 34,000  Level FlightAware
02:19AM 26.2860 51.5470 297° West 429 494 34,000  Level FlightAware
02:19AM 26.3220 51.4670 297° West 427 491 34,000  Level FlightAware
02:20AM 26.3610 51.3790 296° West 422 486 34,000  Level FlightAware
02:21AM 26.3940 51.3010 295° West 419 482 34,000  Level FlightAware
02:21AM 26.4290 51.2120 294° West 419 482 34,000  Level FlightAware
02:22AM 26.4610 51.1310 294° West 420 483 34,000  Level FlightAware
02:23AM 26.4970 51.0430 295° West 420 483 34,000  Level FlightAware
02:23AM 26.5290 50.9630 294° West 419 482 34,000  Level FlightAware
02:24AM 26.5590 50.8810 292° West 417 480 34,000  Level FlightAware
02:25AM 26.5900 50.7910 291° West 419 482 34,000  Level FlightAware
02:26AM 26.6180 50.7090 291° West 417 480 34,000  Level FlightAware
02:26AM 26.6490 50.6200 291° West 415 478 34,000  Level FlightAware
02:27AM 26.6810 50.5220 290° West 415 478 34,000  Level FlightAware
02:28AM 26.7030 50.4530 290° West 415 478 34,000  Level FlightAware
02:29AM 26.7250 50.3850 290° West 415 478 34,000  Level FlightAware
02:29AM 26.7570 50.2550 285° West 408 470 34,000  Level FlightAware
02:30AM 26.7570 50.1810 270° West 408 470 34,000  Level FlightAware
02:31AM 26.7530 50.1040 267° West 407 468 34,000  Level FlightAware
02:31AM 26.7490 50.0220 267° West 407 468 34,000  Level FlightAware
02:32AM 26.7440 49.9330 266° West 407 468 34,000  Level FlightAware
02:33AM 26.7410 49.8610 267° West 407 468 34,000  Level FlightAware
02:33AM 26.7380 49.7890 267° West 407 468 34,000  Level FlightAware
02:34AM 26.7380 49.6380 270° West 407 468 34,000  Level FlightAware
02:35AM 26.7360 49.5580 268° West 407 468 34,000  Level FlightAware
02:36AM 26.7330 49.4690 268° West 408 470 34,000  Level FlightAware
02:36AM 26.7300 49.4020 267° West 408 470 34,000  Level FlightAware
02:37AM 26.7270 49.2960 268° West 410 472 34,000  Level FlightAware
02:38AM 26.7230 49.1980 267° West 411 473 34,000  Level FlightAware
02:38AM 26.7200 49.1140 268° West 411 473 34,000  Level FlightAware
02:39AM 26.7170 49.0300 268° West 410 472 34,000  Level FlightAware
02:40AM 26.7140 48.9320 268° West 410 472 34,000  Level FlightAware
02:40AM 26.7100 48.8470 267° West 410 472 34,000  Level FlightAware
02:41AM 26.7070 48.7510 268° West 411 473 34,000  Level FlightAware
02:42AM 26.7030 48.6670 267° West 411 473 34,000  Level FlightAware
02:43AM 26.7000 48.5710 268° West 411 473 34,000  Level FlightAware
02:43AM 26.6970 48.4980 267° West 411 473 34,000  Level FlightAware
02:44AM 26.6930 48.4020 267° West 411 473 34,000  Level FlightAware
02:45AM 26.6890 48.3170 267° West 412 474 34,000  Level FlightAware
02:45AM 26.6850 48.2210 267° West 413 475 34,000  Level FlightAware
02:46AM 26.6810 48.1350 267° West 412 474 34,000  Level FlightAware
02:47AM 26.6770 48.0400 267° West 412 474 34,000  Level FlightAware
02:48AM 26.6800 47.9240 272° West 412 474 34,000  Level FlightAware
02:48AM 26.6930 47.8380 280° West 410 472 34,000  Level FlightAware
02:49AM 26.7090 47.7450 281° West 410 472 34,000  Level FlightAware
02:50AM 26.7220 47.6620 280° West 410 472 34,000  Level FlightAware
02:51AM 26.7370 47.5670 280° West 409 471 34,000  Level FlightAware
02:51AM 26.7500 47.4840 280° West 407 468 34,000  Level FlightAware
02:52AM 26.7630 47.4010 280° West 408 470 34,000  Level FlightAware
02:53AM 26.7780 47.3040 280° West 408 470 34,000  Level FlightAware
02:53AM 26.7920 47.2110 280° West 409 471 34,000  Level FlightAware
02:54AM 26.8050 47.1270 280° West 407 468 34,000  Level FlightAware
02:55AM 26.8180 47.0440 280° West 407 468 34,000  Level FlightAware
02:55AM 26.8310 46.9610 280° West 408 470 34,000  Level FlightAware
02:56AM 26.8450 46.8670 279° West 408 470 34,000  Level FlightAware
02:57AM 26.8580 46.7830 280° West 408 470 34,000  Level FlightAware
02:58AM 26.8710 46.6930 279° West 409 471 34,000  Level FlightAware
02:58AM 26.8840 46.6070 280° West 411 473 34,000  Level FlightAware
02:59AM 26.8970 46.5230 280° West 410 472 34,000  Level FlightAware
02:59AM 26.9080 46.4500 280° West 411 473 34,000  Level FlightAware
03:00AM 26.9180 46.3740 278° West 411 473 34,000  Level FlightAware
03:01AM 26.9360 46.2570 280° West 411 473 34,000  Level FlightAware
03:02AM 26.9490 46.1730 280° West 411 473 34,000  Level FlightAware
03:02AM 26.9630 46.0780 279° West 411 473 34,000  Level FlightAware
03:03AM 26.9750 45.9950 279° West 412 474 34,000  Level FlightAware
03:04AM 26.9870 45.9090 279° West 412 474 34,000  Level FlightAware
03:05AM 27.0020 45.8050 279° West 411 473 34,000  Level FlightAware
03:05AM 27.0130 45.7300 279° West 411 473 34,000  Level FlightAware
03:06AM 27.0270 45.6370 280° West 411 473 34,000  Level FlightAware
03:07AM 27.0390 45.5520 279° West 411 473 34,000  Level FlightAware
03:07AM 27.0520 45.4570 279° West 411 473 34,000  Level FlightAware
03:10AM 27.1715 45.2144 299° West  Level Estimated
03:10AM 27.0870 45.1430 299° West 410 472 34,000  Level FlightAware
03:11AM 27.0950 45.0710 277° West 410 472 34,000  Level FlightAware
03:11AM 27.1030 44.9990 277° West 410 472 34,000  Level FlightAware
03:12AM 27.1110 44.9270 277° West 410 472 34,000  Level FlightAware
03:13AM 27.1210 44.8370 277° West 410 472 34,000  Level FlightAware
03:13AM 27.1290 44.7650 277° West 410 472 34,000  Level FlightAware
03:14AM 27.1360 44.6930 276° West 410 472 34,000  Level FlightAware
03:15AM 27.1440 44.6210 277° West 410 472 34,000  Level FlightAware
03:15AM 27.1520 44.5490 277° West 410 472 34,000  Level FlightAware
03:16AM 27.1620 44.4590 277° West 410 472 34,000  Level FlightAware
03:17AM 27.1700 44.3870 277° West 410 472 34,000  Level FlightAware
03:18AM 27.1780 44.3150 277° West 410 472 34,000  Level FlightAware
03:18AM 27.1860 44.2430 277° West 410 472 34,000  Level FlightAware
03:19AM 27.1930 44.1710 276° West 410 472 34,000  Level FlightAware
03:22AM 27.3343 43.8815 299° West  Level Estimated
03:23AM 27.3882 43.7707 299° West  Level Estimated
03:24AM 27.4419 43.6598 299° West  Level Estimated
03:25AM 27.4956 43.5487 299° West  Level Estimated
03:26AM 27.5492 43.4376 299° West  Level Estimated
03:27AM 27.6027 43.3263 299° West  Level Estimated
03:28AM 27.6561 43.2150 298° West  Level Estimated
03:29AM 27.7094 43.1035 298° West  Level Estimated
03:30AM 27.7627 42.9919 298° West  Level Estimated
03:31AM 27.8158 42.8802 298° West  Level Estimated
03:32AM 27.8689 42.7684 298° West  Level Estimated
03:33AM 27.9218 42.6565 298° West  Level Estimated
03:34AM 27.9747 42.5445 298° West  Level Estimated
03:35AM 28.0275 42.4324 298° West  Level Estimated
03:36AM 28.0802 42.3201 298° West  Level Estimated
03:37AM 28.1328 42.2078 298° West  Level Estimated
03:38AM 28.1853 42.0953 298° West  Level Estimated
03:39AM 28.2377 41.9827 298° West  Level Estimated
03:40AM 28.2900 41.8701 298° West  Level Estimated
03:41AM 28.3423 41.7573 298° West  Level Estimated
03:42AM 28.3944 41.6444 298° West  Level Estimated
03:43AM 28.4464 41.5314 298° West  Level Estimated
03:44AM 28.4984 41.4183 298° West  Level Estimated
03:45AM 28.5502 41.3050 298° West  Level Estimated
03:46AM 28.6020 41.1917 298° West  Level Estimated
03:47AM 28.6537 41.0782 297° West  Level Estimated
03:48AM 28.7053 40.9646 297° West  Level Estimated
03:49AM 28.7567 40.8510 297° West  Level Estimated
03:50AM 28.8081 40.7372 297° West  Level Estimated
03:51AM 28.8594 40.6233 297° West  Level Estimated
03:52AM 28.9106 40.5092 297° West  Level Estimated
03:53AM 28.9617 40.3951 297° West  Level Estimated
03:54AM 29.0127 40.2809 297° West  Level Estimated
03:55AM 29.0636 40.1665 297° West  Level Estimated
03:56AM 29.1144 40.0520 297° West  Level Estimated
03:57AM 29.1651 39.9375 297° West  Level Estimated
03:58AM 29.2157 39.8228 297° West  Level Estimated
03:59AM 29.2663 39.7080 297° West  Level Estimated
04:00AM 29.3167 39.5930 297° West  Level Estimated
04:01AM 29.3670 39.4780 297° West  Level Estimated
04:02AM 29.4172 39.3628 297° West  Level Estimated
04:03AM 29.4673 39.2476 297° West  Level Estimated
04:04AM 29.5173 39.1322 297° West  Level Estimated
04:05AM 29.5673 39.0167 296° West  Level Estimated
04:06AM 29.6171 38.9011 296° West  Level Estimated
04:07AM 29.6668 38.7854 296° West  Level Estimated
04:08AM 29.7164 38.6696 296° West  Level Estimated
04:09AM 29.7659 38.5536 296° West  Level Estimated
04:10AM 29.8154 38.4375 296° West  Level Estimated
04:11AM 29.8647 38.3214 296° West  Level Estimated
04:12AM 29.9139 38.2051 296° West  Level Estimated
04:13AM 29.9630 38.0887 296° West  Level Estimated
04:14AM 30.0120 37.9721 296° West  Level Estimated
04:15AM 30.0609 37.8555 296° West  Level Estimated
04:15AM 29.0990 37.5530 296° West 415 478 36,000  Level FlightAware
04:15AM 29.0980 37.4660 269° West 415 478 36,000  Level FlightAware
04:16AM 30.1097 37.7388 296° West  Level Estimated
04:16AM 29.0960 37.3740 269° West 415 478 36,000  Level FlightAware
04:17AM 29.0950 37.2610 269° West 416 479 36,000  Level FlightAware
04:17AM 29.0920 37.1820 268° West 416 479 36,000  Level FlightAware
04:18AM 29.0900 37.1070 268° West 416 479 36,000  Level FlightAware
04:19AM 29.0880 37.0320 268° West 416 479 36,000  Level FlightAware
04:20AM 29.0850 36.9380 268° West 416 479 36,000  Level FlightAware
04:20AM 29.0830 36.8640 268° West 416 479 36,000  Level FlightAware
04:21AM 29.0800 36.7890 267° West 416 479 36,000  Level FlightAware
04:22AM 29.0780 36.7140 268° West 416 479 36,000  Level FlightAware
04:22AM 29.0760 36.6390 268° West 416 479 36,000  Level FlightAware
04:23AM 29.0730 36.5460 268° West 416 479 36,000  Level FlightAware
04:24AM 29.0710 36.4710 268° West 416 479 36,000  Level FlightAware
04:24AM 29.0680 36.3960 267° West 416 479 36,000  Level FlightAware
04:25AM 29.0720 36.1620 271° West 416 479 36,000  Level FlightAware
04:26AM 29.0700 36.0870 268° West 416 479 36,000  Level FlightAware
04:27AM 29.0680 36.0130 268° West 416 479 36,000  Level FlightAware
04:27AM 29.0650 35.9380 267° West 416 479 36,000  Level FlightAware
04:28AM 29.0630 35.8440 269° West 416 479 36,000  Level FlightAware
04:29AM 29.0600 35.7690 267° West 416 479 36,000  Level FlightAware
04:29AM 29.0580 35.6950 268° West 416 479 36,000  Level FlightAware
04:30AM 29.0560 35.6200 268° West 416 479 36,000  Level FlightAware
04:31AM 29.0530 35.5260 268° West 416 479 36,000  Level FlightAware
04:32AM 29.0510 35.4510 268° West 416 479 36,000  Level FlightAware
04:32AM 29.0480 35.3770 267° West 416 479 36,000  Level FlightAware
04:33AM 29.0460 35.3020 268° West 416 479 36,000  Level FlightAware
04:34AM 29.0440 35.2270 268° West 416 479 36,000  Level FlightAware
04:34AM 29.0410 35.1340 268° West 416 479 36,000  Level FlightAware
04:37AM 29.1484 34.8916 297° West  Level Estimated
04:38AM 29.1990 34.7769 297° West  Level Estimated
04:39AM 29.2495 34.6621 297° West  Level Estimated
04:40AM 29.2999 34.5472 297° West  Level Estimated
04:41AM 29.3502 34.4322 297° West  Level Estimated
04:42AM 29.4004 34.3170 297° West  Level Estimated
04:43AM 29.4505 34.2018 297° West  Level Estimated
04:44AM 29.5005 34.0864 296° West  Level Estimated
04:45AM 29.5504 33.9709 296° West  Level Estimated
04:46AM 29.6002 33.8553 296° West  Level Estimated
04:47AM 29.6499 33.7396 296° West  Level Estimated
04:48AM 29.6995 33.6238 296° West  Level Estimated
04:49AM 29.7490 33.5078 296° West  Level Estimated
04:50AM 29.7983 33.3918 296° West  Level Estimated
04:51AM 29.8476 33.2756 296° West  Level Estimated
04:52AM 29.8968 33.1593 296° West  Level Estimated
04:53AM 29.9459 33.0429 296° West  Level Estimated
04:54AM 29.9949 32.9264 296° West  Level Estimated
04:55AM 30.0438 32.8098 296° West  Level Estimated
04:56AM 30.0926 32.6931 296° West  Level Estimated
04:57AM 30.1413 32.5762 296° West  Level Estimated
04:58AM 30.1898 32.4592 296° West  Level Estimated
04:59AM 30.2383 32.3421 296° West  Level Estimated
05:00AM 30.2867 32.2249 296° West  Level Estimated
05:01AM 30.3349 32.1076 296° West  Level Estimated
05:02AM 30.3831 31.9902 295° West  Level Estimated
05:03AM 30.4311 31.8726 295° West  Level Estimated
05:04AM 30.4791 31.7549 295° West  Level Estimated
05:05AM 30.5269 31.6372 295° West  Level Estimated
05:06AM 30.5746 31.5193 295° West  Level Estimated
05:07AM 30.6223 31.4012 295° West  Level Estimated
05:08AM 30.6698 31.2831 295° West  Level Estimated
05:09AM 30.7172 31.1649 295° West  Level Estimated
05:10AM 30.7645 31.0465 295° West  Level Estimated
05:11AM 30.8117 30.9280 295° West  Level Estimated
05:12AM 30.8588 30.8094 295° West  Level Estimated
05:13AM 30.9058 30.6907 295° West  Level Estimated
05:14AM 30.9527 30.5719 295° West  Level Estimated
05:15AM 30.9994 30.4529 295° West  Level Estimated
05:16AM 31.0461 30.3339 295° West  Level Estimated
05:17AM 31.0926 30.2147 295° West  Level Estimated
05:18AM 31.1391 30.0954 294° West  Level Estimated
05:19AM 31.1854 29.9760 294° West  Level Estimated
05:20AM 31.2316 29.8564 294° West  Level Estimated
05:21AM 31.2777 29.7368 294° West  Level Estimated
05:22AM 31.3237 29.6170 294° West  Level Estimated
05:23AM 31.3696 29.4972 294° West  Level Estimated
05:24AM 31.4154 29.3772 294° West  Level Estimated
05:25AM 31.4611 29.2570 294° West  Level Estimated
05:26AM 31.5066 29.1368 294° West  Level Estimated
05:27AM 31.5520 29.0165 294° West  Level Estimated
05:28AM 31.5974 28.8960 294° West  Level Estimated
05:29AM 31.6426 28.7754 294° West  Level Estimated
05:30AM 31.6877 28.6547 294° West  Level Estimated
05:31AM 31.7327 28.5339 294° West  Level Estimated
05:32AM 31.7775 28.4130 294° West  Level Estimated
05:33AM 31.8223 28.2919 294° West  Level Estimated
05:34AM 31.8669 28.1707 293° West  Level Estimated
05:35AM 31.9114 28.0495 293° West  Level Estimated
05:36AM 31.9558 27.9281 293° West  Level Estimated
05:37AM 32.0001 27.8065 293° West  Level Estimated
05:38AM 32.0443 27.6849 293° West  Level Estimated
05:39AM 32.0884 27.5631 293° West  Level Estimated
05:40AM 32.1323 27.4413 293° West  Level Estimated
05:41AM 32.1762 27.3193 293° West  Level Estimated
05:42AM 32.2199 27.1972 293° West  Level Estimated
05:43AM 32.2635 27.0749 293° West  Level Estimated
05:44AM 32.3069 26.9526 293° West  Level Estimated
05:45AM 32.3503 26.8302 293° West  Level Estimated
05:46AM 32.3935 26.7076 293° West  Level Estimated
05:47AM 32.4366 26.5849 293° West  Level Estimated
05:48AM 32.4796 26.4621 293° West  Level Estimated
05:49AM 32.5225 26.3391 293° West  Level Estimated
05:50AM 32.5653 26.2161 292° West  Level Estimated
05:51AM 32.6079 26.0929 292° West  Level Estimated
05:52AM 32.6505 25.9697 292° West  Level Estimated
05:53AM 32.6928 25.8463 292° West  Level Estimated
05:54AM 32.7351 25.7227 292° West  Level Estimated
05:55AM 32.7773 25.5991 292° West  Level Estimated
05:56AM 32.8193 25.4754 292° West  Level Estimated
05:57AM 32.8613 25.3515 292° West  Level Estimated
05:58AM 32.9030 25.2275 292° West  Level Estimated
05:59AM 32.9447 25.1034 292° West  Level Estimated
06:00AM 32.9863 24.9792 292° West  Level Estimated
06:01AM 33.0277 24.8549 292° West  Level Estimated
06:02AM 33.0690 24.7304 292° West  Level Estimated
06:03AM 33.1102 24.6058 292° West  Level Estimated
06:04AM 33.1512 24.4812 291° West  Level Estimated
06:05AM 33.1922 24.3564 291° West  Level Estimated
06:06AM 33.2330 24.2314 291° West  Level Estimated
06:07AM 33.2736 24.1064 291° West  Level Estimated
06:08AM 33.3142 23.9813 291° West  Level Estimated
06:09AM 33.3546 23.8560 291° West  Level Estimated
06:10AM 33.3949 23.7306 291° West  Level Estimated
06:11AM 33.4351 23.6051 291° West  Level Estimated
06:12AM 33.4752 23.4795 291° West  Level Estimated
06:13AM 33.5151 23.3538 291° West  Level Estimated
06:14AM 33.5549 23.2279 291° West  Level Estimated
06:15AM 33.5946 23.1020 291° West  Level Estimated
06:16AM 33.6341 22.9759 291° West  Level Estimated
06:17AM 33.6735 22.8497 291° West  Level Estimated
06:18AM 33.7128 22.7234 291° West  Level Estimated
06:19AM 33.7519 22.5970 290° West  Level Estimated
06:20AM 33.7910 22.4704 290° West  Level Estimated
06:20AM 34.6930 22.6500 290° West 383 441 38,000  Level FlightAware
06:20AM 34.7080 22.5840 285° West 383 441 38,000  Level FlightAware
06:21AM 34.7270 22.4960 285° West 383 441 38,000  Level FlightAware
06:22AM 34.7430 22.4250 285° West 383 441 38,000  Level FlightAware
06:22AM 34.7580 22.3540 284° West 383 441 38,000  Level FlightAware
06:23AM 34.7740 22.2830 285° West 383 441 38,000  Level FlightAware
06:24AM 34.7900 22.2130 286° West 383 441 38,000  Level FlightAware
06:24AM 34.8090 22.1240 285° West 383 441 38,000  Level FlightAware
06:25AM 34.8250 22.0530 285° West 383 441 38,000  Level FlightAware
06:26AM 34.8400 21.9820 284° West 383 441 38,000  Level FlightAware
06:26AM 34.8560 21.9110 285° West 383 441 38,000  Level FlightAware
06:27AM 34.8710 21.8400 284° West 383 441 38,000  Level FlightAware
06:28AM 34.8870 21.7690 285° West 383 441 38,000  Level FlightAware
06:29AM 34.9060 21.6810 285° West 383 441 38,000  Level FlightAware
06:29AM 34.9220 21.6100 285° West 383 441 38,000  Level FlightAware
06:32AM 34.9982 21.3235 288° West  Level Estimated
06:33AM 35.0327 21.1932 288° West  Level Estimated
06:34AM 35.0670 21.0627 288° West  Level Estimated
06:35AM 35.1011 20.9321 288° West  Level Estimated
06:36AM 35.1351 20.8014 288° West  Level Estimated
06:36AM 35.1330 20.5980 288° West 393 452 38,000  Level FlightAware
06:37AM 35.1580 20.4780 284° West 395 455 38,000  Level FlightAware
06:37AM 35.1720 20.4070 284° West 394 453 38,000  Level FlightAware
06:38AM 35.1900 20.3220 285° West 394 453 38,000  Level FlightAware
06:39AM 35.2050 20.2480 284° West 394 453 38,000  Level FlightAware
06:39AM 35.2230 20.1560 283° West 394 453 38,000  Level FlightAware
06:40AM 35.2380 20.0830 284° West 394 453 38,000  Level FlightAware
06:41AM 35.2530 20.0090 284° West 394 453 38,000  Level FlightAware
06:41AM 35.2680 19.9360 284° West 394 453 38,000  Level FlightAware
06:42AM 35.3030 19.7520 283° West 399 459 38,000  Level FlightAware
06:43AM 35.3190 19.6630 282° West 399 459 38,000  Level FlightAware
06:44AM 35.3350 19.5810 283° West 400 460 38,000  Level FlightAware
06:44AM 35.3590 19.4670 285° West 402 463 38,000  Level FlightAware
06:45AM 35.3720 19.3990 283° West 402 463 38,000  Level FlightAware
06:46AM 35.3860 19.3240 283° West 402 463 38,000  Level FlightAware
06:46AM 35.3890 19.3140 290° West 407 468 38,000  Level FlightAware
06:47AM 35.4260 19.1190 283° West 404 465 38,000  Level FlightAware
06:48AM 35.4470 19.0080 283° West 403 464 38,000  Level FlightAware
06:48AM 35.4650 18.9140 283° West 403 464 38,000  Level FlightAware
06:49AM 35.4840 18.8160 283° West 403 464 38,000  Level FlightAware
06:50AM 35.5020 18.7170 283° West 403 464 38,000  Level FlightAware
06:51AM 35.5190 18.6250 283° West 404 465 38,000  Level FlightAware
06:51AM 35.5360 18.5360 283° West 403 464 38,000  Level FlightAware
06:52AM 35.5550 18.4350 283° West 403 464 38,000  Level FlightAware
06:53AM 35.5710 18.3480 283° West 404 465 38,000  Level FlightAware
06:53AM 35.5850 18.2710 283° West 405 466 38,000  Level FlightAware
06:54AM 35.6020 18.1790 283° West 405 466 38,000  Level FlightAware
06:55AM 35.6180 18.0900 282° West 405 466 38,000  Level FlightAware
06:55AM 35.6320 18.0120 282° West 406 467 38,000  Level FlightAware
06:56AM 35.6570 17.8760 283° West 407 468 38,000  Level FlightAware
06:57AM 35.6760 17.7730 283° West 408 470 38,000  Level FlightAware
06:58AM 35.6910 17.6850 282° West 408 470 38,000  Level FlightAware
06:58AM 35.7090 17.5840 282° West 409 471 38,000  Level FlightAware
06:59AM 35.7250 17.4910 282° West 409 471 38,000  Level FlightAware
07:00AM 35.7410 17.4000 282° West 411 473 38,000  Level FlightAware
07:00AM 35.7590 17.2990 282° West 413 475 38,000  Level FlightAware
07:01AM 35.7760 17.2030 282° West 416 479 38,000  Level FlightAware
07:02AM 35.7930 17.1020 282° West 419 482 38,000  Level FlightAware
07:02AM 35.8100 17.0070 282° West 422 486 38,000  Level FlightAware
07:03AM 35.8260 16.9120 282° West 424 488 38,000  Level FlightAware
07:04AM 35.8440 16.8060 282° West 426 490 38,000  Level FlightAware
07:05AM 35.8600 16.7130 282° West 427 491 38,000  Level FlightAware
07:05AM 35.8770 16.6090 281° West 427 491 38,000  Level FlightAware
07:06AM 35.8950 16.5070 282° West 429 494 38,000  Level FlightAware
07:07AM 35.9100 16.4130 281° West 431 496 38,000  Level FlightAware
07:07AM 35.9280 16.3060 282° West 432 497 38,000  Level FlightAware
07:08AM 35.9440 16.2070 281° West 434 499 38,000  Level FlightAware
07:09AM 35.9620 16.0980 282° West 435 501 38,000  Level FlightAware
07:09AM 35.9780 16.0000 281° West 437 503 38,000  Level FlightAware
07:10AM 35.9960 15.8910 282° West 437 503 38,000  Level FlightAware
07:13AM 36.0642 15.5857 286° West  Level Estimated
07:14AM 36.0938 15.4518 285° West  Level Estimated
07:15AM 36.1233 15.3178 285° West  Level Estimated
07:16AM 36.1526 15.1837 285° West  Level Estimated
07:17AM 36.1818 15.0495 285° West  Level Estimated
07:18AM 36.2108 14.9152 285° West  Level Estimated
07:19AM 36.2397 14.7808 285° West  Level Estimated
07:20AM 36.2684 14.6463 285° West  Level Estimated
07:21AM 36.2969 14.5117 285° West  Level Estimated
07:22AM 36.3254 14.3770 285° West  Level Estimated
07:23AM 36.3536 14.2422 285° West  Level Estimated
07:24AM 36.3817 14.1073 285° West  Level Estimated
07:25AM 36.4097 13.9723 284° West  Level Estimated
07:26AM 36.4375 13.8373 284° West  Level Estimated
07:27AM 36.4652 13.7021 284° West  Level Estimated
07:28AM 36.4927 13.5668 284° West  Level Estimated
07:29AM 36.5200 13.4314 284° West  Level Estimated
07:30AM 36.5472 13.2960 284° West  Level Estimated
07:31AM 36.5743 13.1604 284° West  Level Estimated
07:32AM 36.6012 13.0248 284° West  Level Estimated
07:33AM 36.6279 12.8890 284° West  Level Estimated
07:34AM 36.6545 12.7532 284° West  Level Estimated
07:35AM 36.6809 12.6172 284° West  Level Estimated
07:36AM 36.7072 12.4812 284° West  Level Estimated
07:37AM 36.7333 12.3451 284° West  Level Estimated
07:38AM 36.7593 12.2089 283° West  Level Estimated
07:39AM 36.7851 12.0726 283° West  Level Estimated
07:39AM 36.6070 11.3980 283° West 465 535 38,000  Level FlightAware
07:40AM 36.6150 11.3070 276° West 465 535 38,000  Level FlightAware
07:41AM 36.6270 11.1850 277° West 465 535 38,000  Level FlightAware
07:41AM 36.6350 11.0940 276° West 464 534 38,000  Level FlightAware
07:42AM 36.6420 11.0140 276° West 464 534 38,000  Level FlightAware
07:42AM 36.6520 10.9100 277° West 467 537 38,000  Level FlightAware
07:43AM 36.6630 10.7870 276° West 467 537 38,000  Level FlightAware
07:44AM 36.6720 10.6800 276° West 466 536 38,000  Level FlightAware
07:44AM 36.6800 10.6000 277° West 467 537 38,000  Level FlightAware
07:45AM 36.6890 10.4930 276° West 466 536 38,000  Level FlightAware
07:46AM 36.6990 10.3740 276° West 466 536 38,000  Level FlightAware
07:46AM 36.7080 10.2690 276° West 467 537 38,000  Level FlightAware
07:47AM 36.7170 10.1600 276° West 468 539 38,000  Level FlightAware
07:48AM 36.7240 10.0840 277° West 469 540 38,000  Level FlightAware
07:48AM 36.7330 9.9760 276° West 470 541 38,000  Level FlightAware
07:49AM 36.7420 9.8620 276° West 471 542 38,000  Level FlightAware
07:50AM 36.7500 9.7650 276° West 470 541 38,000  Level FlightAware
07:50AM 36.7580 9.6600 275° West 471 542 38,000  Level FlightAware
07:51AM 36.7680 9.5390 276° West 470 541 38,000  Level FlightAware
07:52AM 36.7740 9.4570 275° West 470 541 38,000  Level FlightAware
07:52AM 36.7830 9.3510 276° West 469 540 38,000  Level FlightAware
07:53AM 36.7910 9.2410 275° West 467 537 38,000  Level FlightAware
07:54AM 36.7990 9.1350 275° West 466 536 38,000  Level FlightAware
07:54AM 36.8070 9.0210 275° West 467 537 38,000  Level FlightAware
07:55AM 36.8170 8.8910 276° West 466 536 38,000  Level FlightAware
07:56AM 36.8260 8.7710 275° West 467 537 38,000  Level FlightAware
07:56AM 36.8310 8.6750 274° West 467 537 38,000  Level FlightAware
07:57AM 36.8360 8.5830 274° West 467 537 38,000  Level FlightAware
07:58AM 36.8420 8.4910 275° West 467 537 38,000  Level FlightAware
07:59AM 36.8480 8.3770 274° West 467 537 38,000  Level FlightAware
07:59AM 36.8530 8.2850 274° West 467 537 38,000  Level FlightAware
08:00AM 36.8580 8.1940 274° West 467 537 38,000  Level FlightAware
08:00AM 36.8620 8.1250 274° West 467 537 38,000  Level FlightAware
08:01AM 37.0290 7.9720 324° Northwest 38,000  Level FlightAware
08:01AM 37.0480 7.9070 290° West 468 539 38,000  Level FlightAware
08:02AM 37.0810 7.7880 289° West 468 539 38,000  Level FlightAware
08:03AM 37.1160 7.6650 290° West 469 540 38,000  Level FlightAware
08:04AM 37.1510 7.5400 289° West 468 539 38,000  Level FlightAware
08:05AM 37.1850 7.4180 289° West 469 540 38,000  Level FlightAware
08:05AM 37.2140 7.3130 289° West 469 540 38,000  Level FlightAware
08:06AM 37.2420 7.2110 289° West 470 541 38,000  Level FlightAware
08:07AM 37.2740 7.0960 289° West 471 542 38,000  Level FlightAware
08:07AM 37.3030 6.9900 289° West 472 543 38,000  Level FlightAware
08:08AM 37.3340 6.8760 289° West 471 542 38,000  Level FlightAware
08:09AM 37.3580 6.7880 289° West 472 543 38,000  Level FlightAware
08:09AM 37.3840 6.6830 287° West 472 543 38,000  Level FlightAware
08:10AM 37.4050 6.5930 286° West 472 543 38,000  Level FlightAware
08:11AM 37.4270 6.5040 287° West 472 543 38,000  Level FlightAware
08:11AM 37.4490 6.4140 287° West 472 543 38,000  Level FlightAware
08:12AM 37.5080 6.2310 292° West 475 547 38,000  Level FlightAware
08:13AM 37.5420 6.1010 288° West 476 548 38,000  Level FlightAware
08:14AM 37.5690 6.0000 289° West 475 547 38,000  Level FlightAware
08:14AM 37.5960 5.8980 289° West 475 547 38,000  Level FlightAware
08:15AM 37.6310 5.7630 288° West 475 547 38,000  Level FlightAware
08:16AM 37.6750 5.5920 288° West 476 548 38,000  Level FlightAware
08:17AM 37.7040 5.4800 288° West 478 550 38,000  Level FlightAware
08:18AM 37.7310 5.3760 288° West 479 551 38,000  Level FlightAware
08:19AM 37.7700 5.2180 287° West 478 550 38,000  Level FlightAware
08:19AM 37.7920 5.1270 287° West 478 550 38,000  Level FlightAware
08:20AM 37.8140 5.0360 287° West 478 550 38,000  Level FlightAware
08:21AM 37.8420 4.9220 287° West 478 550 38,000  Level FlightAware
08:21AM 37.8640 4.8310 287° West 478 550 38,000  Level FlightAware
08:22AM 37.8860 4.7400 287° West 478 550 38,000  Level FlightAware
08:23AM 37.9080 4.6490 287° West 478 550 38,000  Level FlightAware
08:23AM 37.9240 4.5800 286° West 478 550 38,000  Level FlightAware
08:24AM 37.9410 4.5120 288° West 478 550 38,000  Level FlightAware
08:24AM 37.9630 4.4210 287° West 478 550 38,000  Level FlightAware
08:25AM 37.9850 4.3300 287° West 478 550 38,000  Level FlightAware
08:26AM 38.0550 4.0820 290° West 38,000  Level FlightAware
08:27AM 38.0910 3.9230 286° West 471 542 38,000  Level FlightAware
08:27AM 38.1190 3.8160 288° West 473 544 38,000  Level FlightAware
08:28AM 38.1530 3.6770 287° West 474 545 38,000  Level FlightAware
08:29AM 38.1750 3.5830 287° West 38,000  Level FlightAware
08:30AM 38.2120 3.4300 287° West 475 547 38,000  Level FlightAware
08:31AM 38.2410 3.3290 290° West 474 545 38,000  Level FlightAware
08:31AM 38.2710 3.2250 290° West 475 547 38,000  Level FlightAware
08:32AM 38.3090 3.1070 292° West 473 544 38,000  Level FlightAware
08:33AM 38.3510 2.9950 296° West 477 549 38,000  Level FlightAware
08:33AM 38.3860 2.9040 296° West 478 550 38,000  Level FlightAware
08:34AM 38.4190 2.8170 296° West 479 551 38,000  Level FlightAware
08:34AM 38.4520 2.7290 296° West 475 547 38,000  Level FlightAware
08:35AM 38.4860 2.6380 296° West 475 547 38,000  Level FlightAware
08:36AM 38.5190 2.5490 295° West 474 545 38,000  Level FlightAware
08:36AM 38.5480 2.4740 296° West 474 545 38,000  Level FlightAware
08:37AM 38.5860 2.3710 295° West 475 547 38,000  Level FlightAware
08:37AM 38.6240 2.2690 296° West 476 548 38,000  Level FlightAware
08:38AM 38.6570 2.1790 295° West 476 548 38,000  Level FlightAware
08:39AM 38.6900 2.0900 295° West 476 548 38,000  Level FlightAware
08:39AM 38.7330 1.9730 295° West 477 549 38,000  Level FlightAware
08:40AM 38.7650 1.8840 295° West 477 549 38,000 420 Level FlightAware
08:41AM 38.8070 1.7690 295° West 478 550 38,600 720 Climbing FlightAware
08:41AM 38.8400 1.6780 295° West 476 548 39,000 300 Climbing FlightAware
08:42AM 38.8730 1.5880 295° West 476 548 39,000  Level FlightAware
08:42AM 38.9050 1.4980 295° West 480 552 39,000  Level FlightAware
08:43AM 38.9310 1.4170 292° West 479 551 39,000  Level FlightAware
08:43AM 38.9590 1.3250 291° West 478 550 39,000  Level FlightAware
08:44AM 38.9830 1.2460 291° West 478 550 39,000  Level FlightAware
08:45AM 39.0150 1.1390 291° West 478 550 39,000  Level FlightAware
08:45AM 39.0470 1.0340 291° West 479 551 39,000  Level FlightAware
08:46AM 39.0730 0.9460 291° West 479 551 39,000  Level FlightAware
08:47AM 39.1060 0.8330 291° West 482 555 39,000  Level FlightAware
08:47AM 39.1430 0.7070 291° West 483 556 39,000  Level FlightAware
08:48AM 39.1660 0.6280 291° West 484 557 39,000  Level FlightAware
08:48AM 39.1980 0.5200 291° West 485 558 39,000  Level FlightAware
08:49AM 39.2250 0.4270 291° West 487 560 39,000  Level FlightAware
08:50AM 39.2530 0.3300 290° West 487 560 39,000  Level FlightAware
08:50AM 39.2930 0.1940 291° West 488 562 39,000  Level FlightAware
08:51AM 39.3270 0.0730 290° West 489 563 39,000  Level FlightAware
08:52AM 39.3550 -0.0210 291° West 490 564 39,000  Level FlightAware
08:53AM 39.3900 -0.1470 290° West 491 565 39,000  Level FlightAware
08:53AM 39.4170 -0.2420 290° West 491 565 39,000  Level FlightAware
08:54AM 39.4530 -0.3670 290° West 491 565 39,000  Level FlightAware
08:55AM 39.4910 -0.4910 292° West 492 566 39,000  Level FlightAware
08:55AM 39.5360 -0.5970 299° West 494 568 39,000  Level FlightAware
08:56AM 39.5860 -0.7100 300° West 495 570 39,000  Level FlightAware
08:57AM 39.6370 -0.8260 300° West 497 572 39,000  Level FlightAware
08:57AM 39.6750 -0.9130 300° West 498 573 39,000  Level FlightAware
08:58AM 39.7270 -1.0310 300° West 501 577 39,000  Level FlightAware
08:59AM 39.7670 -1.1230 300° West 502 578 39,000  Level FlightAware
08:59AM 39.8010 -1.2020 299° West 503 579 39,000  Level FlightAware
09:00AM 39.8360 -1.2830 299° West 504 580 39,000  Level FlightAware
09:00AM 39.8810 -1.3880 299° West 505 581 39,000  Level FlightAware
09:01AM 39.9150 -1.4660 300° West 505 581 39,000  Level FlightAware
09:01AM 39.9550 -1.5580 300° West 504 580 39,000  Level FlightAware
09:02AM 39.9890 -1.6390 299° West 503 579 39,000  Level FlightAware
09:03AM 40.0350 -1.7460 299° West 503 579 39,000  Level FlightAware
09:03AM 40.0740 -1.8380 299° West 504 580 39,000  Level FlightAware
09:04AM 40.1150 -1.9320 300° West 504 580 39,000  Level FlightAware
09:05AM 40.1650 -2.0510 299° West 503 579 39,000  Level FlightAware
09:05AM 40.2050 -2.1460 299° West 502 578 39,000  Level FlightAware
09:06AM 40.2390 -2.2270 299° West 502 578 39,000  Level FlightAware
09:06AM 40.2750 -2.3130 299° West 503 579 39,000  Level FlightAware
09:07AM 40.3210 -2.4220 299° West 501 577 39,000  Level FlightAware
09:07AM 40.3540 -2.5220 293° West 500 575 39,000  Level FlightAware
09:08AM 40.3580 -2.5750 276° West 497 572 39,000  Level FlightAware
09:08AM 40.3500 -2.6440 261° West 487 560 39,000  Level FlightAware
09:09AM 40.3250 -2.7650 255° West 487 560 39,000  Level FlightAware
09:09AM 40.3060 -2.8480 253° West 487 560 39,000  Level FlightAware
09:10AM 40.2830 -2.9520 254° West 485 558 39,000  Level FlightAware
09:11AM 40.2560 -3.0760 254° West 485 558 39,000  Level FlightAware
09:11AM 40.2270 -3.2070 254° West 485 558 39,000  Level FlightAware
09:12AM 40.2000 -3.3290 254° West 484 557 39,000  Level FlightAware
09:13AM 40.1770 -3.4320 254° West 484 557 39,000  Level FlightAware
09:14AM 40.1500 -3.5520 254° West 483 556 39,000  Level FlightAware
09:15AM 40.1120 -3.7200 254° West 484 557 39,000  Level FlightAware
09:15AM 40.0860 -3.8320 253° West 484 557 39,000  Level FlightAware
09:16AM 40.0630 -3.9320 253° West 484 557 39,000  Level FlightAware
09:17AM 40.0350 -4.0530 253° West 485 558 39,000  Level FlightAware
09:17AM 40.0070 -4.1760 253° West 484 557 39,000  Level FlightAware
09:18AM 39.9790 -4.2960 253° West 482 555 39,000  Level FlightAware
09:18AM 39.9600 -4.3810 254° West 482 555 39,000  Level FlightAware
09:19AM 39.9390 -4.4870 256° West 482 555 39,000  Level FlightAware
09:20AM 39.9160 -4.6040 256° West 482 555 39,000  Level FlightAware
09:21AM 39.8910 -4.7270 255° West 481 554 39,000  Level FlightAware
09:21AM 39.8680 -4.8380 255° West 479 551 39,000  Level FlightAware
09:22AM 39.8380 -4.9780 254° West 477 549 39,000  Level FlightAware
09:23AM 39.8150 -5.0890 255° West 476 548 39,000  Level FlightAware
09:23AM 39.7890 -5.2140 255° West 475 547 39,000  Level FlightAware
09:24AM 39.7660 -5.3230 255° West 474 545 39,000  Level FlightAware
09:25AM 39.7400 -5.4460 255° West 473 544 39,000  Level FlightAware
09:26AM 39.7170 -5.5530 254° West 472 543 39,000  Level FlightAware
09:26AM 39.6930 -5.6620 254° West 470 541 39,000  Level FlightAware
09:27AM 39.6760 -5.7450 255° West 468 539 39,000  Level FlightAware
09:27AM 39.6530 -5.8510 254° West 466 536 39,000  Level FlightAware
09:28AM 39.6270 -5.9720 254° West 464 534 39,000  Level FlightAware
09:29AM 39.6030 -6.0780 254° West 464 534 39,000  Level FlightAware
09:30AM 39.5770 -6.1980 254° West 464 534 39,000  Level FlightAware
09:30AM 39.5540 -6.3030 254° West 464 534 39,000  Level FlightAware
09:31AM 39.5270 -6.4240 254° West 463 533 39,000  Level FlightAware
09:32AM 39.5090 -6.5320 258° West 462 532 39,000  Level FlightAware
09:32AM 39.4930 -6.6390 259° West 459 528 39,000  Level FlightAware
09:33AM 39.4780 -6.7380 259° West 458 527 39,000 -780 Level FlightAware
09:34AM 39.4610 -6.8540 259° West 456 525 38,000 -1,860 Descending FlightAware
09:34AM 39.4470 -6.9450 259° West 452 520 36,700 -2,220 Descending FlightAware
09:35AM 39.4290 -7.0630 259° West 446 513 35,100 -1,200 Descending FlightAware
09:36AM 39.4130 -7.1650 259° West 409 471 35,000 -1,320 Descending FlightAware
09:36AM 39.3960 -7.2770 259° West 409 471 33,200 -2,520 Descending FlightAware
09:37AM 39.3800 -7.3790 259° West 421 484 31,300 -2,880 Descending FlightAware
09:38AM 39.3690 -7.4520 259° West 427 491 29,900 -2,580 Descending FlightAware
09:38AM 39.3530 -7.5520 258° West 421 484 28,300 -2,880 Descending FlightAware
09:39AM 39.3380 -7.6470 258° West 395 455 26,100 -3,120 Descending FlightAware
09:40AM 39.3190 -7.7640 258° West 347 399 23,400 -2,580 Descending FlightAware
09:41AM 39.3020 -7.8700 258° West 359 413 21,600 -1,800 Descending FlightAware
09:42AM 39.2780 -8.0280 259° West 346 398 19,500 -1,740 Descending FlightAware
09:43AM 39.2680 -8.1800 265° West 340 391 17,200 -1,800 Descending FlightAware
09:44AM 39.2640 -8.2320 264° West 337 388 16,500 -900 Descending FlightAware
09:45AM 39.2540 -8.3400 263° West 333 383 16,000 -1,440 Descending FlightAware
09:46AM 39.2410 -8.4760 263° West 322 371 13,500 -2,100 Descending FlightAware
09:47AM 39.2280 -8.6200 263° West 279 321 10,800 -1,740 Descending FlightAware
09:48AM 39.2180 -8.7270 263° West 271 312 9,300 -1,020 Descending FlightAware
09:49AM 39.2090 -8.8390 264° West 240 276 8,500 -840 Descending FlightAware
09:51AM 39.1720 -8.9210 240° Southwest 231 266 7,300 -1,080 Descending FlightAware
09:51AM 39.1580 -8.9310 209° Southwest 224 258 7,000 -1,140 Descending FlightAware
09:52AM 39.1050 -8.9610 204° Southwest 230 265 6,000 -1,080 Descending FlightAware
09:52AM 39.0850 -8.9720 203° Southwest 229 264 5,700 -1,080 Descending FlightAware
09:53AM 39.0360 -8.9990 203° Southwest 228 262 4,800 -1,140 Descending FlightAware
09:53AM 39.0110 -9.0120 202° Southwest 229 264 4,300 -780 Descending FlightAware
09:54AM 38.9580 -9.0410 203° Southwest 181 208 3,700 -840 Descending FlightAware
09:56AM 38.9010 -9.0720 203° Southwest 192 221 2,500 -1,080 Descending FlightAware
09:56AM 38.8930 -9.0760 201° Southwest 180 207 2,300 -900 Descending FlightAware
09:57AM 38.8450 -9.1020 203° Southwest 143 165 1,300 -840 Descending FlightAware
09:58AM 38.8080 -9.1220 203° Southwest 142 163 600 -540 Descending FlightAware
09:58AM 38.7930 -9.1300 203° Southwest 142 163 600  Level FlightAware